sensor_id;sensor_type;location;lat;lon;timestamp;P1;durP1;ratioP1;P2;durP2;ratioP2
10277;SDS011;5184;51.376;7.148;2023-04-24T00:00:58;0.90;;;0.90;;
10277;SDS011;5184;51.376;7.148;2023-04-24T00:03:25;3.00;;;1.30;;
10277;SDS011;5184;51.376;7.148;2023-04-24T00:05:51;1.90;;;1.10;;
10277;SDS011;5184;51.376;7.148;2023-04-24T00:08:18;1.20;;;0.97;;
10277;SDS011;5184;51.376;7.148;2023-04-24T00:10:44;1.90;;;1.00;;
10277;SDS011;5184;51.376;7.148;2023-04-24T00:13:11;2.03;;;1.03;;
10277;SDS011;5184;51.376;7.148;2023-04-24T00:15:37;2.53;;;1.00;;
10277;SDS011;5184;51.376;7.148;2023-04-24T00:18:04;2.23;;;1.20;;
10277;SDS011;5184;51.376;7.148;2023-04-24T00:20:31;2.13;;;1.30;;
10277;SDS011;5184;51.376;7.148;2023-04-24T00:22:58;1.20;;;1.10;;
10277;SDS011;5184;51.376;7.148;2023-04-24T00:25:25;2.57;;;1.30;;
10277;SDS011;5184;51.376;7.148;2023-04-24T00:27:53;2.30;;;1.23;;
10277;SDS011;5184;51.376;7.148;2023-04-24T00:30:21;1.33;;;1.10;;
10277;SDS011;5184;51.376;7.148;2023-04-24T00:32:48;1.97;;;1.50;;
10277;SDS011;5184;51.376;7.148;2023-04-24T00:35:15;1.40;;;1.30;;
10277;SDS011;5184;51.376;7.148;2023-04-24T00:37:42;1.53;;;1.20;;
10277;SDS011;5184;51.376;7.148;2023-04-24T00:40:09;3.13;;;1.40;;
10277;SDS011;5184;51.376;7.148;2023-04-24T00:42:36;2.17;;;1.60;;
10277;SDS011;5184;51.376;7.148;2023-04-24T00:45:03;4.93;;;2.00;;
10277;SDS011;5184;51.376;7.148;2023-04-24T00:47:32;1.60;;;1.50;;
10277;SDS011;5184;51.376;7.148;2023-04-24T00:50:02;1.67;;;1.40;;
10277;SDS011;5184;51.376;7.148;2023-04-24T00:52:29;2.17;;;1.53;;
10277;SDS011;5184;51.376;7.148;2023-04-24T00:54:55;1.80;;;1.70;;
10277;SDS011;5184;51.376;7.148;2023-04-24T00:57:22;2.63;;;1.60;;
10277;SDS011;5184;51.376;7.148;2023-04-24T00:59:48;1.50;;;1.40;;
10277;SDS011;5184;51.376;7.148;2023-04-24T01:02:15;3.93;;;1.60;;
10277;SDS011;5184;51.376;7.148;2023-04-24T01:04:42;2.07;;;1.50;;
10277;SDS011;5184;51.376;7.148;2023-04-24T01:07:10;2.43;;;1.63;;
10277;SDS011;5184;51.376;7.148;2023-04-24T01:09:38;2.90;;;1.53;;
10277;SDS011;5184;51.376;7.148;2023-04-24T01:12:04;1.60;;;1.50;;
10277;SDS011;5184;51.376;7.148;2023-04-24T01:14:31;1.93;;;1.67;;
10277;SDS011;5184;51.376;7.148;2023-04-24T01:16:58;2.60;;;1.60;;
10277;SDS011;5184;51.376;7.148;2023-04-24T01:19:24;1.70;;;1.60;;
10277;SDS011;5184;51.376;7.148;2023-04-24T01:21:51;4.23;;;1.80;;
10277;SDS011;5184;51.376;7.148;2023-04-24T01:24:17;1.60;;;1.50;;
10277;SDS011;5184;51.376;7.148;2023-04-24T01:26:44;2.80;;;1.80;;
10277;SDS011;5184;51.376;7.148;2023-04-24T01:29:11;2.27;;;1.70;;
10277;SDS011;5184;51.376;7.148;2023-04-24T01:31:39;3.80;;;2.03;;
10277;SDS011;5184;51.376;7.148;2023-04-24T01:34:05;2.00;;;1.70;;
10277;SDS011;5184;51.376;7.148;2023-04-24T01:36:32;2.10;;;1.80;;
10277;SDS011;5184;51.376;7.148;2023-04-24T01:38:59;3.37;;;2.40;;
10277;SDS011;5184;51.376;7.148;2023-04-24T01:41:27;2.67;;;2.00;;
10277;SDS011;5184;51.376;7.148;2023-04-24T01:43:54;2.50;;;2.10;;
10277;SDS011;5184;51.376;7.148;2023-04-24T01:46:21;3.30;;;2.00;;
10277;SDS011;5184;51.376;7.148;2023-04-24T01:48:49;3.23;;;2.67;;
10277;SDS011;5184;51.376;7.148;2023-04-24T01:51:16;2.40;;;2.20;;
10277;SDS011;5184;51.376;7.148;2023-04-24T01:53:43;3.50;;;2.87;;
10277;SDS011;5184;51.376;7.148;2023-04-24T01:56:09;4.30;;;2.60;;
10277;SDS011;5184;51.376;7.148;2023-04-24T01:58:36;4.90;;;3.60;;
10277;SDS011;5184;51.376;7.148;2023-04-24T02:01:02;3.40;;;3.10;;
10277;SDS011;5184;51.376;7.148;2023-04-24T02:03:29;5.57;;;4.17;;
10277;SDS011;5184;51.376;7.148;2023-04-24T02:05:56;6.67;;;4.37;;
10277;SDS011;5184;51.376;7.148;2023-04-24T02:08:22;5.53;;;4.37;;
10277;SDS011;5184;51.376;7.148;2023-04-24T02:10:49;6.23;;;4.60;;
10277;SDS011;5184;51.376;7.148;2023-04-24T02:13:16;6.73;;;4.73;;
10277;SDS011;5184;51.376;7.148;2023-04-24T02:15:43;5.90;;;4.30;;
10277;SDS011;5184;51.376;7.148;2023-04-24T02:18:11;7.60;;;4.73;;
10277;SDS011;5184;51.376;7.148;2023-04-24T02:20:38;8.80;;;4.70;;
10277;SDS011;5184;51.376;7.148;2023-04-24T02:23:06;6.60;;;4.77;;
10277;SDS011;5184;51.376;7.148;2023-04-24T02:25:33;7.80;;;4.90;;
10277;SDS011;5184;51.376;7.148;2023-04-24T02:28:00;7.50;;;5.43;;
10277;SDS011;5184;51.376;7.148;2023-04-24T02:30:28;7.73;;;5.77;;
10277;SDS011;5184;51.376;7.148;2023-04-24T02:32:55;7.50;;;5.73;;
10277;SDS011;5184;51.376;7.148;2023-04-24T02:35:22;7.70;;;6.03;;
10277;SDS011;5184;51.376;7.148;2023-04-24T02:37:50;6.63;;;5.80;;
10277;SDS011;5184;51.376;7.148;2023-04-24T02:40:17;7.70;;;5.30;;
10277;SDS011;5184;51.376;7.148;2023-04-24T02:42:44;7.33;;;5.63;;
10277;SDS011;5184;51.376;7.148;2023-04-24T02:45:10;7.00;;;5.47;;
10277;SDS011;5184;51.376;7.148;2023-04-24T02:47:37;6.77;;;5.80;;
10277;SDS011;5184;51.376;7.148;2023-04-24T02:50:04;8.10;;;6.17;;
10277;SDS011;5184;51.376;7.148;2023-04-24T02:52:31;8.97;;;6.60;;
10277;SDS011;5184;51.376;7.148;2023-04-24T02:54:58;9.13;;;6.50;;
10277;SDS011;5184;51.376;7.148;2023-04-24T02:57:25;7.03;;;5.70;;
10277;SDS011;5184;51.376;7.148;2023-04-24T02:59:51;7.63;;;6.70;;
10277;SDS011;5184;51.376;7.148;2023-04-24T03:02:18;9.87;;;6.43;;
10277;SDS011;5184;51.376;7.148;2023-04-24T03:04:45;6.83;;;6.13;;
10277;SDS011;5184;51.376;7.148;2023-04-24T03:07:11;9.00;;;6.90;;
10277;SDS011;5184;51.376;7.148;2023-04-24T03:09:38;8.57;;;6.60;;
10277;SDS011;5184;51.376;7.148;2023-04-24T03:12:06;9.83;;;7.00;;
10277;SDS011;5184;51.376;7.148;2023-04-24T03:14:33;11.53;;;6.97;;
10277;SDS011;5184;51.376;7.148;2023-04-24T03:17:01;9.47;;;7.57;;
10277;SDS011;5184;51.376;7.148;2023-04-24T03:19:28;8.33;;;6.97;;
10277;SDS011;5184;51.376;7.148;2023-04-24T03:21:55;10.77;;;7.53;;
10277;SDS011;5184;51.376;7.148;2023-04-24T03:24:23;10.40;;;8.03;;
10277;SDS011;5184;51.376;7.148;2023-04-24T03:26:49;10.43;;;7.73;;
10277;SDS011;5184;51.376;7.148;2023-04-24T03:29:16;9.37;;;8.00;;
10277;SDS011;5184;51.376;7.148;2023-04-24T03:31:42;11.53;;;7.83;;
10277;SDS011;5184;51.376;7.148;2023-04-24T03:34:09;11.77;;;8.07;;
10277;SDS011;5184;51.376;7.148;2023-04-24T03:36:36;10.67;;;8.43;;
10277;SDS011;5184;51.376;7.148;2023-04-24T03:39:03;10.57;;;8.03;;
10277;SDS011;5184;51.376;7.148;2023-04-24T03:41:30;9.43;;;8.30;;
10277;SDS011;5184;51.376;7.148;2023-04-24T03:43:58;12.83;;;9.20;;
10277;SDS011;5184;51.376;7.148;2023-04-24T03:46:25;11.80;;;8.43;;
10277;SDS011;5184;51.376;7.148;2023-04-24T03:48:52;13.30;;;9.17;;
10277;SDS011;5184;51.376;7.148;2023-04-24T03:51:20;13.30;;;9.07;;
10277;SDS011;5184;51.376;7.148;2023-04-24T03:53:47;12.63;;;8.60;;
10277;SDS011;5184;51.376;7.148;2023-04-24T03:56:14;10.13;;;8.57;;
10277;SDS011;5184;51.376;7.148;2023-04-24T03:58:40;12.60;;;8.67;;
10277;SDS011;5184;51.376;7.148;2023-04-24T04:01:07;10.60;;;8.10;;
10277;SDS011;5184;51.376;7.148;2023-04-24T04:03:33;10.30;;;9.10;;
10277;SDS011;5184;51.376;7.148;2023-04-24T04:06:00;10.27;;;8.20;;
10277;SDS011;5184;51.376;7.148;2023-04-24T04:08:27;10.70;;;8.60;;
10277;SDS011;5184;51.376;7.148;2023-04-24T04:10:55;10.23;;;8.27;;
10277;SDS011;5184;51.376;7.148;2023-04-24T04:13:22;12.03;;;9.17;;
10277;SDS011;5184;51.376;7.148;2023-04-24T04:15:49;11.03;;;8.80;;
10277;SDS011;5184;51.376;7.148;2023-04-24T04:18:16;12.73;;;9.17;;
10277;SDS011;5184;51.376;7.148;2023-04-24T04:20:43;13.60;;;9.07;;
10277;SDS011;5184;51.376;7.148;2023-04-24T04:23:09;11.63;;;9.13;;
10277;SDS011;5184;51.376;7.148;2023-04-24T04:25:36;11.23;;;9.00;;
10277;SDS011;5184;51.376;7.148;2023-04-24T04:28:02;11.33;;;8.03;;
10277;SDS011;5184;51.376;7.148;2023-04-24T04:30:30;12.80;;;9.73;;
10277;SDS011;5184;51.376;7.148;2023-04-24T04:32:58;11.93;;;9.73;;
10277;SDS011;5184;51.376;7.148;2023-04-24T04:35:25;14.23;;;9.40;;
10277;SDS011;5184;51.376;7.148;2023-04-24T04:37:52;12.10;;;9.20;;
10277;SDS011;5184;51.376;7.148;2023-04-24T04:40:19;12.97;;;9.77;;
10277;SDS011;5184;51.376;7.148;2023-04-24T04:42:47;14.77;;;10.10;;
10277;SDS011;5184;51.376;7.148;2023-04-24T04:45:14;12.93;;;9.17;;
10277;SDS011;5184;51.376;7.148;2023-04-24T04:47:41;11.53;;;9.07;;
10277;SDS011;5184;51.376;7.148;2023-04-24T04:50:07;12.13;;;8.97;;
10277;SDS011;5184;51.376;7.148;2023-04-24T04:52:34;16.33;;;9.30;;
10277;SDS011;5184;51.376;7.148;2023-04-24T04:55:02;11.10;;;8.60;;
10277;SDS011;5184;51.376;7.148;2023-04-24T04:57:29;14.90;;;9.43;;
10277;SDS011;5184;51.376;7.148;2023-04-24T04:59:56;12.60;;;9.00;;
10277;SDS011;5184;51.376;7.148;2023-04-24T05:02:22;11.00;;;8.50;;
10277;SDS011;5184;51.376;7.148;2023-04-24T05:04:49;11.73;;;8.33;;
10277;SDS011;5184;51.376;7.148;2023-04-24T05:07:16;10.47;;;7.97;;
10277;SDS011;5184;51.376;7.148;2023-04-24T05:09:43;9.90;;;8.57;;
10277;SDS011;5184;51.376;7.148;2023-04-24T05:12:09;9.13;;;7.90;;
10277;SDS011;5184;51.376;7.148;2023-04-24T05:14:37;9.03;;;7.70;;
10277;SDS011;5184;51.376;7.148;2023-04-24T05:17:04;10.43;;;8.60;;
10277;SDS011;5184;51.376;7.148;2023-04-24T05:19:31;12.03;;;8.87;;
10277;SDS011;5184;51.376;7.148;2023-04-24T05:21:59;9.80;;;8.30;;
10277;SDS011;5184;51.376;7.148;2023-04-24T05:24:26;10.60;;;8.67;;
10277;SDS011;5184;51.376;7.148;2023-04-24T05:26:54;11.57;;;8.67;;
10277;SDS011;5184;51.376;7.148;2023-04-24T05:29:21;11.77;;;8.87;;
10277;SDS011;5184;51.376;7.148;2023-04-24T05:31:48;11.73;;;8.97;;
10277;SDS011;5184;51.376;7.148;2023-04-24T05:34:15;11.03;;;9.30;;
10277;SDS011;5184;51.376;7.148;2023-04-24T05:36:41;13.37;;;10.13;;
10277;SDS011;5184;51.376;7.148;2023-04-24T05:39:08;12.83;;;9.80;;
10277;SDS011;5184;51.376;7.148;2023-04-24T05:41:35;12.80;;;10.53;;
10277;SDS011;5184;51.376;7.148;2023-04-24T05:44:01;14.70;;;11.57;;
10277;SDS011;5184;51.376;7.148;2023-04-24T05:46:29;11.87;;;10.50;;
10277;SDS011;5184;51.376;7.148;2023-04-24T05:48:55;14.27;;;11.87;;
10277;SDS011;5184;51.376;7.148;2023-04-24T05:51:22;16.20;;;11.20;;
10277;SDS011;5184;51.376;7.148;2023-04-24T05:53:48;14.07;;;10.50;;
10277;SDS011;5184;51.376;7.148;2023-04-24T05:56:15;13.03;;;10.57;;
10277;SDS011;5184;51.376;7.148;2023-04-24T05:58:42;15.13;;;10.90;;
10277;SDS011;5184;51.376;7.148;2023-04-24T06:01:09;13.30;;;9.70;;
10277;SDS011;5184;51.376;7.148;2023-04-24T06:03:37;13.57;;;10.23;;
10277;SDS011;5184;51.376;7.148;2023-04-24T06:06:03;12.77;;;9.57;;
10277;SDS011;5184;51.376;7.148;2023-04-24T06:08:30;12.40;;;10.13;;
10277;SDS011;5184;51.376;7.148;2023-04-24T06:10:56;9.63;;;8.50;;
10277;SDS011;5184;51.376;7.148;2023-04-24T06:13:23;9.33;;;8.00;;
10277;SDS011;5184;51.376;7.148;2023-04-24T06:15:49;10.03;;;8.00;;
10277;SDS011;5184;51.376;7.148;2023-04-24T06:18:17;11.73;;;7.83;;
10277;SDS011;5184;51.376;7.148;2023-04-24T06:20:45;8.97;;;8.03;;
10277;SDS011;5184;51.376;7.148;2023-04-24T06:23:12;12.57;;;8.77;;
10277;SDS011;5184;51.376;7.148;2023-04-24T06:25:39;9.03;;;7.70;;
10277;SDS011;5184;51.376;7.148;2023-04-24T06:28:06;10.33;;;7.67;;
10277;SDS011;5184;51.376;7.148;2023-04-24T06:30:34;8.87;;;7.97;;
10277;SDS011;5184;51.376;7.148;2023-04-24T06:33:00;10.20;;;8.33;;
10277;SDS011;5184;51.376;7.148;2023-04-24T06:35:27;9.50;;;8.50;;
10277;SDS011;5184;51.376;7.148;2023-04-24T06:37:53;9.60;;;8.60;;
10277;SDS011;5184;51.376;7.148;2023-04-24T06:40:20;10.63;;;8.90;;
10277;SDS011;5184;51.376;7.148;2023-04-24T06:42:46;10.50;;;9.40;;
10277;SDS011;5184;51.376;7.148;2023-04-24T06:45:14;10.90;;;8.57;;
10277;SDS011;5184;51.376;7.148;2023-04-24T06:47:41;11.03;;;9.60;;
10277;SDS011;5184;51.376;7.148;2023-04-24T06:50:09;10.00;;;8.37;;
10277;SDS011;5184;51.376;7.148;2023-04-24T06:52:36;9.30;;;8.30;;
10277;SDS011;5184;51.376;7.148;2023-04-24T06:55:04;11.43;;;8.50;;
10277;SDS011;5184;51.376;7.148;2023-04-24T06:57:32;9.67;;;7.83;;
10277;SDS011;5184;51.376;7.148;2023-04-24T06:59:59;10.13;;;8.07;;
10277;SDS011;5184;51.376;7.148;2023-04-24T07:02:25;10.33;;;7.73;;
10277;SDS011;5184;51.376;7.148;2023-04-24T07:04:52;9.67;;;7.50;;
10277;SDS011;5184;51.376;7.148;2023-04-24T07:07:19;9.87;;;7.43;;
10277;SDS011;5184;51.376;7.148;2023-04-24T07:09:45;8.73;;;6.90;;
10277;SDS011;5184;51.376;7.148;2023-04-24T07:12:12;8.30;;;6.60;;
10277;SDS011;5184;51.376;7.148;2023-04-24T07:14:39;7.53;;;6.73;;
10277;SDS011;5184;51.376;7.148;2023-04-24T07:17:07;7.50;;;6.67;;
10277;SDS011;5184;51.376;7.148;2023-04-24T07:19:34;6.83;;;6.13;;
10277;SDS011;5184;51.376;7.148;2023-04-24T07:22:02;7.00;;;5.73;;
10277;SDS011;5184;51.376;7.148;2023-04-24T07:24:30;7.40;;;6.50;;
10277;SDS011;5184;51.376;7.148;2023-04-24T07:26:56;8.77;;;6.67;;
10277;SDS011;5184;51.376;7.148;2023-04-24T07:29:23;7.20;;;6.50;;
10277;SDS011;5184;51.376;7.148;2023-04-24T07:31:49;6.20;;;5.60;;
10277;SDS011;5184;51.376;7.148;2023-04-24T07:34:16;5.70;;;4.90;;
10277;SDS011;5184;51.376;7.148;2023-04-24T07:36:43;4.63;;;4.23;;
10277;SDS011;5184;51.376;7.148;2023-04-24T07:39:09;3.90;;;3.50;;
10277;SDS011;5184;51.376;7.148;2023-04-24T07:41:36;3.93;;;3.63;;
10277;SDS011;5184;51.376;7.148;2023-04-24T07:44:03;4.50;;;3.50;;
10277;SDS011;5184;51.376;7.148;2023-04-24T07:46:30;3.57;;;3.10;;
10277;SDS011;5184;51.376;7.148;2023-04-24T07:48:58;3.17;;;2.60;;
10277;SDS011;5184;51.376;7.148;2023-04-24T07:51:25;3.00;;;2.70;;
10277;SDS011;5184;51.376;7.148;2023-04-24T07:53:53;3.47;;;2.90;;
10277;SDS011;5184;51.376;7.148;2023-04-24T07:56:22;3.73;;;2.87;;
10277;SDS011;5184;51.376;7.148;2023-04-24T07:58:48;3.37;;;3.07;;
10277;SDS011;5184;51.376;7.148;2023-04-24T08:01:15;3.37;;;2.63;;
10277;SDS011;5184;51.376;7.148;2023-04-24T08:03:41;2.80;;;2.30;;
10277;SDS011;5184;51.376;7.148;2023-04-24T08:06:09;2.20;;;1.80;;
10277;SDS011;5184;51.376;7.148;2023-04-24T08:08:35;1.67;;;1.40;;
10277;SDS011;5184;51.376;7.148;2023-04-24T08:11:02;1.67;;;1.37;;
10277;SDS011;5184;51.376;7.148;2023-04-24T08:13:28;1.30;;;1.20;;
10277;SDS011;5184;51.376;7.148;2023-04-24T08:15:56;1.07;;;1.03;;
10277;SDS011;5184;51.376;7.148;2023-04-24T08:18:23;1.37;;;0.67;;
10277;SDS011;5184;51.376;7.148;2023-04-24T08:20:51;0.97;;;0.70;;
10277;SDS011;5184;51.376;7.148;2023-04-24T08:23:18;1.00;;;0.90;;
10277;SDS011;5184;51.376;7.148;2023-04-24T08:25:45;0.97;;;0.90;;
10277;SDS011;5184;51.376;7.148;2023-04-24T08:28:13;1.67;;;1.20;;
10277;SDS011;5184;51.376;7.148;2023-04-24T08:30:40;1.67;;;1.20;;
10277;SDS011;5184;51.376;7.148;2023-04-24T08:33:07;1.97;;;1.27;;
10277;SDS011;5184;51.376;7.148;2023-04-24T08:35:33;1.87;;;1.30;;
10277;SDS011;5184;51.376;7.148;2023-04-24T08:38:00;1.20;;;1.10;;
10277;SDS011;5184;51.376;7.148;2023-04-24T08:40:27;1.47;;;1.17;;
10277;SDS011;5184;51.376;7.148;2023-04-24T08:42:53;1.20;;;1.10;;
10277;SDS011;5184;51.376;7.148;2023-04-24T08:45:20;1.70;;;1.10;;
10277;SDS011;5184;51.376;7.148;2023-04-24T08:47:46;1.80;;;1.40;;
10277;SDS011;5184;51.376;7.148;2023-04-24T08:50:13;1.27;;;1.13;;
10277;SDS011;5184;51.376;7.148;2023-04-24T08:52:40;1.30;;;1.20;;
10277;SDS011;5184;51.376;7.148;2023-04-24T08:55:08;1.27;;;1.00;;
10277;SDS011;5184;51.376;7.148;2023-04-24T08:57:34;1.40;;;1.30;;
10277;SDS011;5184;51.376;7.148;2023-04-24T09:00:01;1.67;;;1.37;;
10277;SDS011;5184;51.376;7.148;2023-04-24T09:02:27;1.67;;;1.57;;
10277;SDS011;5184;51.376;7.148;2023-04-24T09:04:54;3.07;;;1.47;;
10277;SDS011;5184;51.376;7.148;2023-04-24T09:07:21;2.07;;;1.70;;
10277;SDS011;5184;51.376;7.148;2023-04-24T09:09:47;1.37;;;1.27;;
10277;SDS011;5184;51.376;7.148;2023-04-24T09:12:14;1.50;;;1.40;;
10277;SDS011;5184;51.376;7.148;2023-04-24T09:14:40;1.70;;;1.60;;
10277;SDS011;5184;51.376;7.148;2023-04-24T09:17:08;1.40;;;1.30;;
10277;SDS011;5184;51.376;7.148;2023-04-24T09:19:34;1.50;;;1.40;;
10277;SDS011;5184;51.376;7.148;2023-04-24T09:22:04;1.83;;;1.70;;
10277;SDS011;5184;51.376;7.148;2023-04-24T09:24:27;2.43;;;1.60;;
10277;SDS011;5184;51.376;7.148;2023-04-24T09:26:56;1.60;;;1.50;;
10277;SDS011;5184;51.376;7.148;2023-04-24T09:29:25;2.50;;;2.10;;
10277;SDS011;5184;51.376;7.148;2023-04-24T09:31:51;2.20;;;1.70;;
10277;SDS011;5184;51.376;7.148;2023-04-24T09:34:23;2.37;;;2.00;;
10277;SDS011;5184;51.376;7.148;2023-04-24T09:36:48;2.80;;;2.57;;
10277;SDS011;5184;51.376;7.148;2023-04-24T09:39:15;3.53;;;3.23;;
10277;SDS011;5184;51.376;7.148;2023-04-24T09:44:16;4.60;;;4.03;;
10277;SDS011;5184;51.376;7.148;2023-04-24T09:46:44;5.50;;;3.97;;
10277;SDS011;5184;51.376;7.148;2023-04-24T09:49:12;6.70;;;4.23;;
10277;SDS011;5184;51.376;7.148;2023-04-24T09:51:39;5.87;;;4.30;;
10277;SDS011;5184;51.376;7.148;2023-04-24T09:56:41;4.27;;;2.90;;
10277;SDS011;5184;51.376;7.148;2023-04-24T09:59:06;3.87;;;3.00;;
10277;SDS011;5184;51.376;7.148;2023-04-24T10:01:33;3.70;;;3.30;;
10277;SDS011;5184;51.376;7.148;2023-04-24T10:04:01;4.47;;;3.60;;
10277;SDS011;5184;51.376;7.148;2023-04-24T10:06:33;3.80;;;3.40;;
10277;SDS011;5184;51.376;7.148;2023-04-24T10:08:59;5.23;;;3.70;;
10277;SDS011;5184;51.376;7.148;2023-04-24T10:11:26;5.27;;;3.50;;
10277;SDS011;5184;51.376;7.148;2023-04-24T10:13:53;4.80;;;3.90;;
10277;SDS011;5184;51.376;7.148;2023-04-24T10:16:20;4.93;;;4.07;;
10277;SDS011;5184;51.376;7.148;2023-04-24T10:18:47;5.83;;;4.23;;
10277;SDS011;5184;51.376;7.148;2023-04-24T10:21:14;6.60;;;4.77;;
10277;SDS011;5184;51.376;7.148;2023-04-24T10:23:41;5.93;;;4.87;;
10277;SDS011;5184;51.376;7.148;2023-04-24T10:26:09;6.53;;;5.10;;
10277;SDS011;5184;51.376;7.148;2023-04-24T10:28:36;5.73;;;4.97;;
10277;SDS011;5184;51.376;7.148;2023-04-24T10:31:03;6.77;;;5.17;;
10277;SDS011;5184;51.376;7.148;2023-04-24T10:33:31;6.90;;;4.77;;
10277;SDS011;5184;51.376;7.148;2023-04-24T10:35:58;7.40;;;4.50;;
10277;SDS011;5184;51.376;7.148;2023-04-24T10:38:26;6.50;;;4.37;;
10277;SDS011;5184;51.376;7.148;2023-04-24T10:40:56;8.03;;;4.50;;
10277;SDS011;5184;51.376;7.148;2023-04-24T10:43:19;7.53;;;4.80;;
10277;SDS011;5184;51.376;7.148;2023-04-24T10:46:05;7.87;;;4.90;;
10277;SDS011;5184;51.376;7.148;2023-04-24T10:48:33;5.97;;;4.90;;
10277;SDS011;5184;51.376;7.148;2023-04-24T10:51:00;10.03;;;5.97;;
10277;SDS011;5184;51.376;7.148;2023-04-24T10:53:28;10.47;;;6.30;;
10277;SDS011;5184;51.376;7.148;2023-04-24T10:56:03;8.90;;;6.77;;
10277;SDS011;5184;51.376;7.148;2023-04-24T10:58:40;9.00;;;6.03;;
10277;SDS011;5184;51.376;7.148;2023-04-24T11:01:06;12.93;;;6.47;;
10277;SDS011;5184;51.376;7.148;2023-04-24T11:03:34;12.63;;;6.17;;
10277;SDS011;5184;51.376;7.148;2023-04-24T11:06:02;10.37;;;6.13;;
10277;SDS011;5184;51.376;7.148;2023-04-24T11:08:29;9.63;;;6.47;;
10277;SDS011;5184;51.376;7.148;2023-04-24T11:10:57;11.37;;;5.60;;
10277;SDS011;5184;51.376;7.148;2023-04-24T11:13:27;11.40;;;5.97;;
10277;SDS011;5184;51.376;7.148;2023-04-24T11:18:36;11.20;;;5.37;;
10277;SDS011;5184;51.376;7.148;2023-04-24T11:21:09;10.77;;;5.83;;
10277;SDS011;5184;51.376;7.148;2023-04-24T11:23:35;11.87;;;5.67;;
10277;SDS011;5184;51.376;7.148;2023-04-24T11:28:35;11.60;;;6.73;;
10277;SDS011;5184;51.376;7.148;2023-04-24T11:33:41;13.60;;;7.10;;
10277;SDS011;5184;51.376;7.148;2023-04-24T11:36:08;12.80;;;7.77;;
10277;SDS011;5184;51.376;7.148;2023-04-24T11:38:34;14.70;;;8.27;;
10277;SDS011;5184;51.376;7.148;2023-04-24T11:41:01;13.60;;;7.90;;
10277;SDS011;5184;51.376;7.148;2023-04-24T11:43:29;12.83;;;6.93;;
10277;SDS011;5184;51.376;7.148;2023-04-24T11:45:55;13.93;;;7.60;;
10277;SDS011;5184;51.376;7.148;2023-04-24T11:48:22;12.33;;;7.10;;
10277;SDS011;5184;51.376;7.148;2023-04-24T11:50:49;12.87;;;6.63;;
10277;SDS011;5184;51.376;7.148;2023-04-24T11:53:15;10.67;;;6.17;;
10277;SDS011;5184;51.376;7.148;2023-04-24T11:55:43;13.53;;;7.03;;
10277;SDS011;5184;51.376;7.148;2023-04-24T11:58:09;11.70;;;6.70;;
10277;SDS011;5184;51.376;7.148;2023-04-24T12:00:36;11.53;;;6.10;;
10277;SDS011;5184;51.376;7.148;2023-04-24T12:03:06;13.57;;;6.57;;
10277;SDS011;5184;51.376;7.148;2023-04-24T12:05:35;8.83;;;5.80;;
10277;SDS011;5184;51.376;7.148;2023-04-24T12:08:03;8.70;;;5.50;;
10277;SDS011;5184;51.376;7.148;2023-04-24T12:10:30;11.87;;;5.70;;
10277;SDS011;5184;51.376;7.148;2023-04-24T12:12:57;11.47;;;5.97;;
10277;SDS011;5184;51.376;7.148;2023-04-24T12:15:25;9.47;;;5.87;;
10277;SDS011;5184;51.376;7.148;2023-04-24T12:17:52;12.20;;;5.87;;
10277;SDS011;5184;51.376;7.148;2023-04-24T12:20:23;13.20;;;5.57;;
10277;SDS011;5184;51.376;7.148;2023-04-24T12:22:51;10.57;;;5.37;;
10277;SDS011;5184;51.376;7.148;2023-04-24T12:25:17;9.83;;;5.30;;
10277;SDS011;5184;51.376;7.148;2023-04-24T12:27:44;8.83;;;5.30;;
10277;SDS011;5184;51.376;7.148;2023-04-24T12:30:12;6.90;;;4.43;;
10277;SDS011;5184;51.376;7.148;2023-04-24T12:32:41;14.20;;;5.10;;
10277;SDS011;5184;51.376;7.148;2023-04-24T12:35:06;9.43;;;5.03;;
10277;SDS011;5184;51.376;7.148;2023-04-24T12:37:33;7.80;;;4.60;;
10277;SDS011;5184;51.376;7.148;2023-04-24T12:40:03;8.97;;;4.70;;
10277;SDS011;5184;51.376;7.148;2023-04-24T12:42:29;8.57;;;4.43;;
10277;SDS011;5184;51.376;7.148;2023-04-24T12:44:57;8.13;;;3.73;;
10277;SDS011;5184;51.376;7.148;2023-04-24T12:47:25;7.17;;;4.20;;
10277;SDS011;5184;51.376;7.148;2023-04-24T12:49:52;8.00;;;3.63;;
10277;SDS011;5184;51.376;7.148;2023-04-24T12:52:19;6.50;;;3.60;;
10277;SDS011;5184;51.376;7.148;2023-04-24T12:54:47;6.47;;;3.90;;
10277;SDS011;5184;51.376;7.148;2023-04-24T12:57:14;5.17;;;3.57;;
10277;SDS011;5184;51.376;7.148;2023-04-24T12:59:41;6.90;;;3.53;;
10277;SDS011;5184;51.376;7.148;2023-04-24T13:02:09;7.57;;;3.40;;
10277;SDS011;5184;51.376;7.148;2023-04-24T13:04:36;5.80;;;2.90;;
10277;SDS011;5184;51.376;7.148;2023-04-24T13:07:04;6.87;;;3.80;;
10277;SDS011;5184;51.376;7.148;2023-04-24T13:09:31;8.90;;;3.67;;
10277;SDS011;5184;51.376;7.148;2023-04-24T13:11:57;5.03;;;3.37;;
10277;SDS011;5184;51.376;7.148;2023-04-24T13:14:25;6.33;;;3.27;;
10277;SDS011;5184;51.376;7.148;2023-04-24T13:16:52;5.97;;;3.20;;
10277;SDS011;5184;51.376;7.148;2023-04-24T13:19:19;5.50;;;2.63;;
10277;SDS011;5184;51.376;7.148;2023-04-24T13:21:46;5.17;;;3.27;;
10277;SDS011;5184;51.376;7.148;2023-04-24T13:24:13;6.93;;;3.53;;
10277;SDS011;5184;51.376;7.148;2023-04-24T13:26:41;7.57;;;3.47;;
10277;SDS011;5184;51.376;7.148;2023-04-24T13:29:08;5.57;;;3.50;;
10277;SDS011;5184;51.376;7.148;2023-04-24T13:31:35;5.97;;;2.93;;
10277;SDS011;5184;51.376;7.148;2023-04-24T13:34:02;7.00;;;2.97;;
10277;SDS011;5184;51.376;7.148;2023-04-24T13:36:28;6.53;;;2.60;;
10277;SDS011;5184;51.376;7.148;2023-04-24T13:38:55;5.37;;;2.20;;
10277;SDS011;5184;51.376;7.148;2023-04-24T13:41:21;5.60;;;2.30;;
10277;SDS011;5184;51.376;7.148;2023-04-24T13:43:48;4.93;;;2.10;;
10277;SDS011;5184;51.376;7.148;2023-04-24T13:46:16;4.53;;;2.50;;
10277;SDS011;5184;51.376;7.148;2023-04-24T13:48:42;6.17;;;2.53;;
10277;SDS011;5184;51.376;7.148;2023-04-24T13:51:09;5.17;;;2.23;;
10277;SDS011;5184;51.376;7.148;2023-04-24T13:53:36;5.23;;;2.20;;
10277;SDS011;5184;51.376;7.148;2023-04-24T13:56:02;5.47;;;2.20;;
10277;SDS011;5184;51.376;7.148;2023-04-24T14:01:01;4.50;;;1.90;;
10277;SDS011;5184;51.376;7.148;2023-04-24T14:03:28;4.83;;;2.30;;
10277;SDS011;5184;51.376;7.148;2023-04-24T14:05:55;6.07;;;2.53;;
10277;SDS011;5184;51.376;7.148;2023-04-24T14:08:22;5.40;;;2.20;;
10277;SDS011;5184;51.376;7.148;2023-04-24T14:10:49;5.37;;;2.50;;
10277;SDS011;5184;51.376;7.148;2023-04-24T14:13:17;4.40;;;2.43;;
10277;SDS011;5184;51.376;7.148;2023-04-24T14:15:44;5.37;;;2.30;;
10277;SDS011;5184;51.376;7.148;2023-04-24T14:18:11;4.17;;;2.47;;
10277;SDS011;5184;51.376;7.148;2023-04-24T14:20:39;2.83;;;1.63;;
10277;SDS011;5184;51.376;7.148;2023-04-24T14:23:06;2.57;;;2.00;;
10277;SDS011;5184;51.376;7.148;2023-04-24T14:25:33;4.23;;;2.17;;
10277;SDS011;5184;51.376;7.148;2023-04-24T14:28:01;2.57;;;1.67;;
10277;SDS011;5184;51.376;7.148;2023-04-24T14:30:28;2.20;;;1.47;;
10277;SDS011;5184;51.376;7.148;2023-04-24T14:32:55;3.10;;;1.70;;
10277;SDS011;5184;51.376;7.148;2023-04-24T14:35:21;3.30;;;1.50;;
10277;SDS011;5184;51.376;7.148;2023-04-24T14:37:48;2.03;;;1.40;;
10277;SDS011;5184;51.376;7.148;2023-04-24T14:40:15;2.73;;;1.57;;
10277;SDS011;5184;51.376;7.148;2023-04-24T14:42:41;4.00;;;1.70;;
10277;SDS011;5184;51.376;7.148;2023-04-24T14:45:09;3.03;;;2.20;;
10277;SDS011;5184;51.376;7.148;2023-04-24T14:47:36;2.57;;;1.50;;
10277;SDS011;5184;51.376;7.148;2023-04-24T14:50:04;2.80;;;1.63;;
10277;SDS011;5184;51.376;7.148;2023-04-24T14:52:31;2.20;;;1.43;;
10277;SDS011;5184;51.376;7.148;2023-04-24T14:54:58;3.53;;;1.70;;
10277;SDS011;5184;51.376;7.148;2023-04-24T14:57:24;4.27;;;1.60;;
10277;SDS011;5184;51.376;7.148;2023-04-24T14:59:51;3.17;;;1.40;;
10277;SDS011;5184;51.376;7.148;2023-04-24T15:02:18;4.07;;;2.57;;
10277;SDS011;5184;51.376;7.148;2023-04-24T15:04:45;1.67;;;1.40;;
10277;SDS011;5184;51.376;7.148;2023-04-24T15:07:13;2.83;;;1.80;;
10277;SDS011;5184;51.376;7.148;2023-04-24T15:09:39;2.13;;;1.90;;
10277;SDS011;5184;51.376;7.148;2023-04-24T15:12:07;3.03;;;2.57;;